sensor_id;sensor_type;location;lat;lon;timestamp;pressure;altitude;pressure_sealevel;temperature;humidity
32237;BME280;18726;44.732;10.550;2024-02-21T00:01:25;102022.91;;;12.87;100.00
32237;BME280;18726;44.732;10.550;2024-02-21T00:04:28;102016.69;;;13.07;100.00
32237;BME280;18726;44.732;10.550;2024-02-21T00:07:32;102013.97;;;12.78;92.54
32237;BME280;18726;44.732;10.550;2024-02-21T00:10:36;102026.28;;;12.55;87.40
32237;BME280;18726;44.732;10.550;2024-02-21T00:13:40;102023.47;;;12.34;91.06
32237;BME280;18726;44.732;10.550;2024-02-21T00:16:44;102022.84;;;12.20;89.64
32237;BME280;18726;44.732;10.550;2024-02-21T00:19:48;102023.84;;;11.98;88.30
32237;BME280;18726;44.732;10.550;2024-02-21T00:22:51;102022.72;;;11.73;86.19
32237;BME280;18726;44.732;10.550;2024-02-21T00:25:55;102014.38;;;11.26;88.69
32237;BME280;18726;44.732;10.550;2024-02-21T00:28:59;102019.97;;;11.30;100.00
32237;BME280;18726;44.732;10.550;2024-02-21T00:32:02;102017.13;;;11.61;100.00
32237;BME280;18726;44.732;10.550;2024-02-21T00:35:06;102015.22;;;11.78;95.84
32237;BME280;18726;44.732;10.550;2024-02-21T00:38:10;102023.38;;;11.87;91.05
32237;BME280;18726;44.732;10.550;2024-02-21T00:41:14;102023.38;;;11.87;86.94
32237;BME280;18726;44.732;10.550;2024-02-21T00:44:18;102015.69;;;11.89;91.26
32237;BME280;18726;44.732;10.550;2024-02-21T00:47:21;102021.13;;;12.53;100.00
32237;BME280;18726;44.732;10.550;2024-02-21T00:50:25;102018.38;;;12.70;100.00
32237;BME280;18726;44.732;10.550;2024-02-21T00:53:29;102015.69;;;11.89;89.00
32237;BME280;18726;44.732;10.550;2024-02-21T00:56:32;102022.06;;;11.59;99.85
32237;BME280;18726;44.732;10.550;2024-02-21T00:59:37;102014.16;;;12.35;100.00
32237;BME280;18726;44.732;10.550;2024-02-21T01:02:41;102012.31;;;13.15;100.00
32237;BME280;18726;44.732;10.550;2024-02-21T01:05:44;102012.81;;;13.17;100.00
32237;BME280;18726;44.732;10.550;2024-02-21T01:08:49;102023.13;;;13.32;100.00
32237;BME280;18726;44.732;10.550;2024-02-21T01:11:52;102014.69;;;12.96;94.86
32237;BME280;18726;44.732;10.550;2024-02-21T01:14:56;102016.63;;;12.57;100.00
32237;BME280;18726;44.732;10.550;2024-02-21T01:18:00;102008.31;;;12.92;100.00
32237;BME280;18726;44.732;10.550;2024-02-21T01:21:03;102004.03;;;13.03;100.00
32237;BME280;18726;44.732;10.550;2024-02-21T01:24:10;102013.63;;;13.38;100.00
32237;BME280;18726;44.732;10.550;2024-02-21T01:27:13;102023.56;;;13.22;91.13
32237;BME280;18726;44.732;10.550;2024-02-21T01:30:17;102023.56;;;12.46;89.35
32237;BME280;18726;44.732;10.550;2024-02-21T01:33:21;102029.72;;;12.72;100.00
32237;BME280;18726;44.732;10.550;2024-02-21T01:36:24;102031.94;;;13.17;100.00
32237;BME280;18726;44.732;10.550;2024-02-21T01:39:28;102028.88;;;13.39;100.00
32237;BME280;18726;44.732;10.550;2024-02-21T01:42:31;102023.41;;;13.81;100.00
32237;BME280;18726;44.732;10.550;2024-02-21T01:45:35;102020.72;;;13.93;100.00
32237;BME280;18726;44.732;10.550;2024-02-21T01:48:38;102020.56;;;13.57;100.00
32237;BME280;18726;44.732;10.550;2024-02-21T01:51:43;102016.66;;;12.87;89.23
32237;BME280;18726;44.732;10.550;2024-02-21T01:54:48;102012.00;;;11.94;93.24
32237;BME280;18726;44.732;10.550;2024-02-21T01:57:52;102011.94;;;12.28;100.00
32237;BME280;18726;44.732;10.550;2024-02-21T02:00:56;102013.84;;;12.36;100.00
32237;BME280;18726;44.732;10.550;2024-02-21T02:04:00;102013.63;;;12.50;100.00
32237;BME280;18726;44.732;10.550;2024-02-21T02:07:06;102009.25;;;12.58;100.00
32237;BME280;18726;44.732;10.550;2024-02-21T02:10:10;102007.34;;;11.94;95.28
32237;BME280;18726;44.732;10.550;2024-02-21T02:13:15;102002.88;;;11.64;100.00
32237;BME280;18726;44.732;10.550;2024-02-21T02:16:18;101994.56;;;11.52;100.00
32237;BME280;18726;44.732;10.550;2024-02-21T02:19:22;101998.38;;;11.59;100.00
32237;BME280;18726;44.732;10.550;2024-02-21T02:22:28;101998.06;;;11.61;100.00
32237;BME280;18726;44.732;10.550;2024-02-21T02:25:33;101995.59;;;10.99;90.46
32237;BME280;18726;44.732;10.550;2024-02-21T02:28:36;101990.75;;;10.30;93.61
32237;BME280;18726;44.732;10.550;2024-02-21T02:31:40;101996.69;;;9.88;100.00
32237;BME280;18726;44.732;10.550;2024-02-21T02:34:43;101996.25;;;9.50;97.91
32237;BME280;18726;44.732;10.550;2024-02-21T02:37:48;101992.25;;;9.33;100.00
32237;BME280;18726;44.732;10.550;2024-02-21T02:40:53;101985.66;;;9.26;100.00
32237;BME280;18726;44.732;10.550;2024-02-21T02:43:56;101991.31;;;9.74;100.00
32237;BME280;18726;44.732;10.550;2024-02-21T02:47:00;101986.94;;;10.40;100.00
32237;BME280;18726;44.732;10.550;2024-02-21T02:50:04;101979.94;;;10.96;100.00
32237;BME280;18726;44.732;10.550;2024-02-21T02:53:08;101986.75;;;10.67;100.00
32237;BME280;18726;44.732;10.550;2024-02-21T02:56:15;101975.75;;;10.33;100.00
32237;BME280;18726;44.732;10.550;2024-02-21T02:59:19;101980.81;;;10.26;99.37
32237;BME280;18726;44.732;10.550;2024-02-21T03:02:23;101976.75;;;9.92;100.00
32237;BME280;18726;44.732;10.550;2024-02-21T03:05:26;101976.75;;;9.92;100.00
32237;BME280;18726;44.732;10.550;2024-02-21T03:08:30;101967.38;;;10.21;100.00
32237;BME280;18726;44.732;10.550;2024-02-21T03:11:35;101963.97;;;11.37;100.00
32237;BME280;18726;44.732;10.550;2024-02-21T03:14:40;101967.28;;;12.03;100.00
32237;BME280;18726;44.732;10.550;2024-02-21T03:17:43;101973.28;;;12.35;100.00
32237;BME280;18726;44.732;10.550;2024-02-21T03:20:47;101975.47;;;12.50;100.00
32237;BME280;18726;44.732;10.550;2024-02-21T03:23:51;101979.66;;;12.77;100.00
32237;BME280;18726;44.732;10.550;2024-02-21T03:26:55;101975.25;;;12.64;100.00
32237;BME280;18726;44.732;10.550;2024-02-21T03:29:58;101980.31;;;12.74;100.00
32237;BME280;18726;44.732;10.550;2024-02-21T03:33:02;101982.88;;;13.00;100.00
32237;BME280;18726;44.732;10.550;2024-02-21T03:36:06;101979.91;;;13.22;100.00
32237;BME280;18726;44.732;10.550;2024-02-21T03:39:10;101988.94;;;13.35;100.00
32237;BME280;18726;44.732;10.550;2024-02-21T03:42:14;101994.72;;;13.33;100.00
32237;BME280;18726;44.732;10.550;2024-02-21T03:45:18;101999.53;;;12.77;100.00
32237;BME280;18726;44.732;10.550;2024-02-21T03:48:21;102010.88;;;12.03;94.33
32237;BME280;18726;44.732;10.550;2024-02-21T03:51:25;102010.81;;;12.21;100.00
32237;BME280;18726;44.732;10.550;2024-02-21T03:54:28;102008.00;;;12.55;100.00
32237;BME280;18726;44.732;10.550;2024-02-21T03:57:32;102000.53;;;12.35;93.86
32237;BME280;18726;44.732;10.550;2024-02-21T04:00:36;102004.81;;;11.55;89.50
32237;BME280;18726;44.732;10.550;2024-02-21T04:03:39;101998.06;;;11.61;100.00
32237;BME280;18726;44.732;10.550;2024-02-21T04:06:49;102001.31;;;11.80;100.00
32237;BME280;18726;44.732;10.550;2024-02-21T04:09:53;102004.66;;;11.51;100.00
32237;BME280;18726;44.732;10.550;2024-02-21T04:12:57;102000.91;;;12.16;100.00
32237;BME280;18726;44.732;10.550;2024-02-21T04:16:01;102009.78;;;12.42;100.00
32237;BME280;18726;44.732;10.550;2024-02-21T04:19:05;102007.84;;;11.70;100.00
32237;BME280;18726;44.732;10.550;2024-02-21T04:22:08;102009.91;;;11.30;100.00
32237;BME280;18726;44.732;10.550;2024-02-21T04:25:12;102011.03;;;11.55;100.00
32237;BME280;18726;44.732;10.550;2024-02-21T04:28:16;101997.75;;;11.71;100.00
32237;BME280;18726;44.732;10.550;2024-02-21T04:31:19;102006.03;;;10.97;91.68
32237;BME280;18726;44.732;10.550;2024-02-21T04:34:23;102006.25;;;10.07;95.78
32237;BME280;18726;44.732;10.550;2024-02-21T04:37:27;102003.88;;;10.37;100.00
32237;BME280;18726;44.732;10.550;2024-02-21T04:40:30;102008.66;;;10.40;100.00
32237;BME280;18726;44.732;10.550;2024-02-21T04:43:34;102009.03;;;10.47;100.00
32237;BME280;18726;44.732;10.550;2024-02-21T04:46:42;102008.59;;;10.00;100.00
32237;BME280;18726;44.732;10.550;2024-02-21T04:49:46;102009.06;;;9.58;100.00
32237;BME280;18726;44.732;10.550;2024-02-21T04:52:50;102014.72;;;8.98;100.00
32237;BME280;18726;44.732;10.550;2024-02-21T04:55:53;102013.44;;;8.82;100.00
32237;BME280;18726;44.732;10.550;2024-02-21T04:58:56;102014.91;;;9.01;100.00
32237;BME280;18726;44.732;10.550;2024-02-21T05:02:00;102016.56;;;9.25;100.00
32237;BME280;18726;44.732;10.550;2024-02-21T05:05:04;102021.63;;;9.54;100.00
32237;BME280;18726;44.732;10.550;2024-02-21T05:08:09;102026.94;;;10.48;100.00
32237;BME280;18726;44.732;10.550;2024-02-21T05:11:13;102030.03;;;11.12;100.00
32237;BME280;18726;44.732;10.550;2024-02-21T05:14:18;102022.56;;;11.52;100.00
32237;BME280;18726;44.732;10.550;2024-02-21T05:17:21;102019.22;;;11.98;100.00
32237;BME280;18726;44.732;10.550;2024-02-21T05:20:25;102019.81;;;11.26;99.89
32237;BME280;18726;44.732;10.550;2024-02-21T05:23:28;102020.88;;;10.51;94.74
32237;BME280;18726;44.732;10.550;2024-02-21T05:26:31;102032.91;;;10.28;100.00
32237;BME280;18726;44.732;10.550;2024-02-21T05:29:36;102039.28;;;11.02;100.00
32237;BME280;18726;44.732;10.550;2024-02-21T05:32:40;102038.56;;;11.36;100.00
32237;BME280;18726;44.732;10.550;2024-02-21T05:35:44;102038.25;;;11.46;100.00
32237;BME280;18726;44.732;10.550;2024-02-21T05:38:48;102033.97;;;11.80;100.00
32237;BME280;18726;44.732;10.550;2024-02-21T05:41:51;102033.06;;;10.62;90.42
32237;BME280;18726;44.732;10.550;2024-02-21T05:44:55;102029.81;;;9.98;100.00
32237;BME280;18726;44.732;10.550;2024-02-21T05:47:59;102024.25;;;8.82;94.95
32237;BME280;18726;44.732;10.550;2024-02-21T05:51:02;102021.81;;;8.39;100.00
32237;BME280;18726;44.732;10.550;2024-02-21T05:54:06;102022.22;;;8.46;100.00
32237;BME280;18726;44.732;10.550;2024-02-21T05:57:10;102026.81;;;9.64;100.00
32237;BME280;18726;44.732;10.550;2024-02-21T06:00:15;102023.81;;;10.63;100.00
32237;BME280;18726;44.732;10.550;2024-02-21T06:03:18;102020.97;;;10.77;100.00
32237;BME280;18726;44.732;10.550;2024-02-21T06:06:41;102025.00;;;9.95;100.00
32237;BME280;18726;44.732;10.550;2024-02-21T06:09:45;102021.66;;;9.76;100.00
32237;BME280;18726;44.732;10.550;2024-02-21T06:12:49;102025.41;;;9.66;100.00
32237;BME280;18726;44.732;10.550;2024-02-21T06:15:53;102029.44;;;9.69;100.00
32237;BME280;18726;44.732;10.550;2024-02-21T06:18:56;102027.19;;;9.48;100.00
32237;BME280;18726;44.732;10.550;2024-02-21T06:21:59;102032.34;;;9.72;100.00
32237;BME280;18726;44.732;10.550;2024-02-21T06:25:03;102040.91;;;10.33;100.00
32237;BME280;18726;44.732;10.550;2024-02-21T06:28:07;102038.88;;;11.43;100.00
32237;BME280;18726;44.732;10.550;2024-02-21T06:31:11;102042.94;;;12.53;100.00
32237;BME280;18726;44.732;10.550;2024-02-21T06:34:15;102051.72;;;12.67;88.10
32237;BME280;18726;44.732;10.550;2024-02-21T06:37:19;102058.84;;;13.48;100.00
32237;BME280;18726;44.732;10.550;2024-02-21T06:40:22;102060.97;;;13.84;91.42
32237;BME280;18726;44.732;10.550;2024-02-21T06:43:26;102060.97;;;14.50;100.00
32237;BME280;18726;44.732;10.550;2024-02-21T06:46:30;102063.25;;;15.45;93.75
32237;BME280;18726;44.732;10.550;2024-02-21T06:49:34;102071.00;;;16.24;85.49
32237;BME280;18726;44.732;10.550;2024-02-21T06:52:37;102065.56;;;16.55;71.47
32237;BME280;18726;44.732;10.550;2024-02-21T06:55:41;102070.28;;;16.86;77.11
32237;BME280;18726;44.732;10.550;2024-02-21T06:58:45;102077.81;;;17.40;70.50
32237;BME280;18726;44.732;10.550;2024-02-21T07:01:51;102081.72;;;17.39;63.07
32237;BME280;18726;44.732;10.550;2024-02-21T07:04:54;102079.25;;;18.07;66.12
32237;BME280;18726;44.732;10.550;2024-02-21T07:07:58;102078.59;;;19.02;67.96
32237;BME280;18726;44.732;10.550;2024-02-21T07:11:02;102085.38;;;19.94;65.08
32237;BME280;18726;44.732;10.550;2024-02-21T07:14:06;102089.31;;;20.64;60.17
32237;BME280;18726;44.732;10.550;2024-02-21T07:17:09;102088.72;;;21.43;51.80
32237;BME280;18726;44.732;10.550;2024-02-21T07:20:13;102090.53;;;21.86;51.23
32237;BME280;18726;44.732;10.550;2024-02-21T07:23:17;102097.72;;;22.05;43.50
32237;BME280;18726;44.732;10.550;2024-02-21T07:26:21;102097.41;;;22.39;45.11
32237;BME280;18726;44.732;10.550;2024-02-21T07:29:25;102095.88;;;23.27;47.01
32237;BME280;18726;44.732;10.550;2024-02-21T07:32:28;102094.38;;;24.16;42.00
32237;BME280;18726;44.732;10.550;2024-02-21T07:35:32;102093.81;;;24.43;46.82
32237;BME280;18726;44.732;10.550;2024-02-21T07:38:35;102086.53;;;24.63;40.20
32237;BME280;18726;44.732;10.550;2024-02-21T07:41:39;102085.50;;;24.43;41.90
32237;BME280;18726;44.732;10.550;2024-02-21T07:44:45;102095.06;;;25.69;41.99
32237;BME280;18726;44.732;10.550;2024-02-21T07:47:48;102101.88;;;27.02;38.23
32237;BME280;18726;44.732;10.550;2024-02-21T07:50:52;102106.47;;;27.95;39.47
32237;BME280;18726;44.732;10.550;2024-02-21T07:53:56;102111.91;;;28.71;34.78
32237;BME280;18726;44.732;10.550;2024-02-21T07:57:00;102115.22;;;27.97;31.86
32237;BME280;18726;44.732;10.550;2024-02-21T08:00:04;102113.09;;;26.99;33.83
32237;BME280;18726;44.732;10.550;2024-02-21T08:03:15;102109.13;;;28.54;36.25
32237;BME280;18726;44.732;10.550;2024-02-21T08:06:20;102105.66;;;29.28;35.79
32237;BME280;18726;44.732;10.550;2024-02-21T08:09:24;102111.19;;;30.28;30.59
32237;BME280;18726;44.732;10.550;2024-02-21T08:12:28;102107.00;;;27.70;31.51
32237;BME280;18726;44.732;10.550;2024-02-21T08:15:31;102110.19;;;29.38;31.72
32237;BME280;18726;44.732;10.550;2024-02-21T08:18:37;102110.72;;;30.67;30.41
32237;BME280;18726;44.732;10.550;2024-02-21T08:21:42;102125.47;;;31.62;30.52
32237;BME280;18726;44.732;10.550;2024-02-21T08:24:45;102127.03;;;32.87;28.59
32237;BME280;18726;44.732;10.550;2024-02-21T08:27:49;102134.66;;;33.87;27.88
32237;BME280;18726;44.732;10.550;2024-02-21T08:30:54;102140.75;;;34.46;26.39
32237;BME280;18726;44.732;10.550;2024-02-21T08:33:58;102138.50;;;34.59;25.55
32237;BME280;18726;44.732;10.550;2024-02-21T08:37:08;102135.13;;;35.17;27.24
32237;BME280;18726;44.732;10.550;2024-02-21T08:40:14;102135.28;;;35.52;26.98
32237;BME280;18726;44.732;10.550;2024-02-21T08:43:21;102123.22;;;35.81;25.95
32237;BME280;18726;44.732;10.550;2024-02-21T08:46:25;102123.50;;;36.28;25.03
32237;BME280;18726;44.732;10.550;2024-02-21T08:49:30;102126.56;;;36.79;25.52
32237;BME280;18726;44.732;10.550;2024-02-21T08:52:34;102112.75;;;36.87;24.28
32237;BME280;18726;44.732;10.550;2024-02-21T08:55:38;102105.56;;;35.72;25.69
32237;BME280;18726;44.732;10.550;2024-02-21T08:58:41;102102.38;;;37.04;25.11
32237;BME280;18726;44.732;10.550;2024-02-21T09:01:45;102101.34;;;37.48;23.58
32237;BME280;18726;44.732;10.550;2024-02-21T09:04:49;102098.84;;;38.61;23.36
32237;BME280;18726;44.732;10.550;2024-02-21T09:07:52;102101.88;;;38.52;23.66
32237;BME280;18726;44.732;10.550;2024-02-21T09:10:56;102099.41;;;38.76;22.41
32237;BME280;18726;44.732;10.550;2024-02-21T09:14:00;102099.16;;;39.51;22.58
32237;BME280;18726;44.732;10.550;2024-02-21T09:17:04;102094.44;;;39.25;21.44
32237;BME280;18726;44.732;10.550;2024-02-21T09:20:08;102100.13;;;40.26;20.97
32237;BME280;18726;44.732;10.550;2024-02-21T09:23:11;102085.69;;;39.57;20.60
32237;BME280;18726;44.732;10.550;2024-02-21T09:26:15;102087.75;;;39.95;21.39
32237;BME280;18726;44.732;10.550;2024-02-21T09:29:20;102086.31;;;40.63;21.55
32237;BME280;18726;44.732;10.550;2024-02-21T09:32:23;102086.16;;;40.97;20.57
32237;BME280;18726;44.732;10.550;2024-02-21T09:35:27;102087.44;;;40.27;21.88
32237;BME280;18726;44.732;10.550;2024-02-21T09:38:31;102081.56;;;39.80;22.04
32237;BME280;18726;44.732;10.550;2024-02-21T09:41:37;102080.50;;;40.05;22.13
32237;BME280;18726;44.732;10.550;2024-02-21T09:44:46;102063.19;;;39.59;21.81
32237;BME280;18726;44.732;10.550;2024-02-21T09:51:10;102069.66;;;39.76;21.92
32237;BME280;18726;44.732;10.550;2024-02-21T09:54:14;102064.66;;;40.21;21.28
32237;BME280;18726;44.732;10.550;2024-02-21T09:57:18;102055.47;;;40.67;20.92
32237;BME280;18726;44.732;10.550;2024-02-21T10:00:21;102052.44;;;41.36;20.13
32237;BME280;18726;44.732;10.550;2024-02-21T10:03:26;102050.66;;;40.98;20.21
32237;BME280;18726;44.732;10.550;2024-02-21T10:06:29;102051.00;;;40.83;20.41
32237;BME280;18726;44.732;10.550;2024-02-21T10:09:32;102049.53;;;38.64;20.62
32237;BME280;18726;44.732;10.550;2024-02-21T10:12:36;102049.72;;;39.65;21.39
32237;BME280;18726;44.732;10.550;2024-02-21T10:15:40;102046.63;;;39.74;21.93
32237;BME280;18726;44.732;10.550;2024-02-21T10:18:43;102048.31;;;38.28;22.23
32237;BME280;18726;44.732;10.550;2024-02-21T10:22:00;102048.09;;;36.85;22.22
32237;BME280;18726;44.732;10.550;2024-02-21T10:25:13;102039.16;;;36.32;23.23
32237;BME280;18726;44.732;10.550;2024-02-21T10:28:16;102037.34;;;35.79;24.34
32237;BME280;18726;44.732;10.550;2024-02-21T10:31:24;102025.19;;;35.05;25.04
32237;BME280;18726;44.732;10.550;2024-02-21T10:34:28;102020.53;;;34.63;25.70
32237;BME280;18726;44.732;10.550;2024-02-21T10:37:31;102023.56;;;30.49;28.05
32237;BME280;18726;44.732;10.550;2024-02-21T10:40:38;102014.88;;;31.78;28.84
32237;BME280;18726;44.732;10.550;2024-02-21T10:43:47;102023.78;;;32.16;27.44
32237;BME280;18726;44.732;10.550;2024-02-21T10:46:53;102018.19;;;31.54;29.80
32237;BME280;18726;44.732;10.550;2024-02-21T10:50:07;102020.81;;;31.27;28.75
32237;BME280;18726;44.732;10.550;2024-02-21T10:53:21;102017.16;;;29.18;31.92
32237;BME280;18726;44.732;10.550;2024-02-21T10:56:33;102019.56;;;29.74;32.43
32237;BME280;18726;44.732;10.550;2024-02-21T10:59:44;102020.97;;;30.54;30.75
32237;BME280;18726;44.732;10.550;2024-02-21T11:02:49;102014.19;;;27.23;33.20
32237;BME280;18726;44.732;10.550;2024-02-21T11:05:53;102006.72;;;29.06;33.07
32237;BME280;18726;44.732;10.550;2024-02-21T11:09:03;102001.84;;;29.77;30.91
32237;BME280;18726;44.732;10.550;2024-02-21T11:12:08;101993.88;;;29.21;33.23
32237;BME280;18726;44.732;10.550;2024-02-21T11:15:12;101990.19;;;29.66;33.47
32237;BME280;18726;44.732;10.550;2024-02-21T11:18:23;101987.28;;;30.07;32.63
32237;BME280;18726;44.732;10.550;2024-02-21T11:21:35;101987.91;;;30.37;32.66
32237;BME280;18726;44.732;10.550;2024-02-21T11:24:40;101970.19;;;29.38;32.18
32237;BME280;18726;44.732;10.550;2024-02-21T11:27:46;101962.28;;;29.62;33.20
32237;BME280;18726;44.732;10.550;2024-02-21T11:30:50;101955.13;;;29.61;33.17
32237;BME280;18726;44.732;10.550;2024-02-21T11:33:54;101955.31;;;29.00;34.38
32237;BME280;18726;44.732;10.550;2024-02-21T11:36:58;101937.38;;;28.84;35.23
32237;BME280;18726;44.732;10.550;2024-02-21T11:40:03;101934.06;;;29.02;35.13
32237;BME280;18726;44.732;10.550;2024-02-21T11:43:07;101925.06;;;28.95;34.40
32237;BME280;18726;44.732;10.550;2024-02-21T11:46:11;101921.13;;;27.33;34.23
32237;BME280;18726;44.732;10.550;2024-02-21T11:49:15;101917.00;;;27.02;35.01
32237;BME280;18726;44.732;10.550;2024-02-21T11:52:21;101911.94;;;26.53;36.43
32237;BME280;18726;44.732;10.550;2024-02-21T11:55:28;101913.66;;;26.67;36.16
32237;BME280;18726;44.732;10.550;2024-02-21T11:58:32;101898.91;;;26.00;38.31
32237;BME280;18726;44.732;10.550;2024-02-21T12:01:36;101894.59;;;25.42;37.83
32237;BME280;18726;44.732;10.550;2024-02-21T12:04:39;101889.09;;;25.69;38.71
32237;BME280;18726;44.732;10.550;2024-02-21T12:07:43;101883.78;;;26.48;39.42
32237;BME280;18726;44.732;10.550;2024-02-21T12:10:47;101888.81;;;26.76;37.59
32237;BME280;18726;44.732;10.550;2024-02-21T12:14:01;101886.19;;;27.25;39.24
32237;BME280;18726;44.732;10.550;2024-02-21T12:17:06;101887.06;;;27.58;38.21
32237;BME280;18726;44.732;10.550;2024-02-21T12:20:10;101870.09;;;27.69;40.30
32237;BME280;18726;44.732;10.550;2024-02-21T12:23:15;101875.59;;;26.80;38.56
32237;BME280;18726;44.732;10.550;2024-02-21T12:26:19;101872.69;;;26.64;37.58
32237;BME280;18726;44.732;10.550;2024-02-21T12:29:24;101866.56;;;26.30;37.87
32237;BME280;18726;44.732;10.550;2024-02-21T12:32:28;101865.78;;;26.72;40.69
32237;BME280;18726;44.732;10.550;2024-02-21T12:35:31;101861.59;;;27.20;41.88
32237;BME280;18726;44.732;10.550;2024-02-21T12:38:36;101857.44;;;27.44;41.14
32237;BME280;18726;44.732;10.550;2024-02-21T12:41:40;101852.22;;;27.30;41.38
32237;BME280;18726;44.732;10.550;2024-02-21T12:44:44;101840.75;;;27.61;38.96
32237;BME280;18726;44.732;10.550;2024-02-21T12:47:49;101831.94;;;27.62;39.24
32237;BME280;18726;44.732;10.550;2024-02-21T12:50:52;101833.66;;;27.40;39.22
32237;BME280;18726;44.732;10.550;2024-02-21T12:53:56;101834.44;;;27.56;41.26
32237;BME280;18726;44.732;10.550;2024-02-21T12:57:00;101820.66;;;27.49;41.82
32237;BME280;18726;44.732;10.550;2024-02-21T13:00:06;101806.38;;;27.64;40.57
32237;BME280;18726;44.732;10.550;2024-02-21T13:03:12;101809.66;;;27.26;38.26
32237;BME280;18726;44.732;10.550;2024-02-21T13:06:16;101798.31;;;27.33;40.85
32237;BME280;18726;44.732;10.550;2024-02-21T13:09:19;101791.25;;;27.12;39.01
32237;BME280;18726;44.732;10.550;2024-02-21T13:12:23;101787.47;;;27.19;40.22
32237;BME280;18726;44.732;10.550;2024-02-21T13:15:29;101792.06;;;26.73;39.26
32237;BME280;18726;44.732;10.550;2024-02-21T13:18:34;101780.25;;;26.85;41.31
32237;BME280;18726;44.732;10.550;2024-02-21T13:21:38;101778.28;;;26.27;39.64
32237;BME280;18726;44.732;10.550;2024-02-21T13:24:42;101780.31;;;26.46;41.33
32237;BME280;18726;44.732;10.550;2024-02-21T13:27:45;101767.53;;;26.84;41.50
32237;BME280;18726;44.732;10.550;2024-02-21T13:30:49;101759.34;;;26.94;39.64
32237;BME280;18726;44.732;10.550;2024-02-21T13:33:53;101756.25;;;26.72;38.49
32237;BME280;18726;44.732;10.550;2024-02-21T13:36:56;101740.97;;;26.80;39.95
32237;BME280;18726;44.732;10.550;2024-02-21T13:40:00;101745.25;;;26.84;39.74
32237;BME280;18726;44.732;10.550;2024-02-21T13:43:03;101735.56;;;26.89;41.09
32237;BME280;18726;44.732;10.550;2024-02-21T13:46:07;101733.41;;;26.97;40.18
32237;BME280;18726;44.732;10.550;2024-02-21T13:49:13;101729.84;;;26.96;40.41
32237;BME280;18726;44.732;10.550;2024-02-21T13:52:16;101722.69;;;26.59;40.82
32237;BME280;18726;44.732;10.550;2024-02-21T13:55:20;101707.72;;;26.53;41.72
32237;BME280;18726;44.732;10.550;2024-02-21T13:58:25;101709.28;;;26.54;41.50
32237;BME280;18726;44.732;10.550;2024-02-21T14:01:29;101715.56;;;26.18;41.30
32237;BME280;18726;44.732;10.550;2024-02-21T14:04:35;101712.50;;;25.93;40.48
32237;BME280;18726;44.732;10.550;2024-02-21T14:07:39;101697.84;;;25.89;42.52
32237;BME280;18726;44.732;10.550;2024-02-21T14:10:42;101700.22;;;25.90;41.77
32237;BME280;18726;44.732;10.550;2024-02-21T14:13:45;101693.97;;;25.83;41.51
32237;BME280;18726;44.732;10.550;2024-02-21T14:16:49;101696.47;;;25.77;42.84
32237;BME280;18726;44.732;10.550;2024-02-21T14:19:53;101686.84;;;25.82;42.68
32237;BME280;18726;44.732;10.550;2024-02-21T14:22:57;101689.13;;;26.07;42.80
32237;BME280;18726;44.732;10.550;2024-02-21T14:26:02;101693.78;;;25.94;41.43
32237;BME280;18726;44.732;10.550;2024-02-21T14:29:07;101691.34;;;25.52;42.65
32237;BME280;18726;44.732;10.550;2024-02-21T14:32:12;101680.22;;;25.29;40.83
32237;BME280;18726;44.732;10.550;2024-02-21T14:35:17;101676.41;;;24.92;41.08
32237;BME280;18726;44.732;10.550;2024-02-21T14:38:20;101675.13;;;25.24;44.54
32237;BME280;18726;44.732;10.550;2024-02-21T14:41:24;101673.41;;;25.34;44.01
32237;BME280;18726;44.732;10.550;2024-02-21T14:44:28;101670.41;;;25.44;43.62
32237;BME280;18726;44.732;10.550;2024-02-21T14:47:32;101661.34;;;25.40;43.47
32237;BME280;18726;44.732;10.550;2024-02-21T14:50:36;101656.75;;;25.30;42.83
32237;BME280;18726;44.732;10.550;2024-02-21T14:53:40;101649.00;;;25.18;43.04
32237;BME280;18726;44.732;10.550;2024-02-21T14:56:43;101648.91;;;25.25;44.68
32237;BME280;18726;44.732;10.550;2024-02-21T14:59:49;101643.94;;;25.13;44.71
32237;BME280;18726;44.732;10.550;2024-02-21T15:02:56;101641.50;;;25.15;44.85
32237;BME280;18726;44.732;10.550;2024-02-21T15:06:01;101637.78;;;25.25;45.10
32237;BME280;18726;44.732;10.550;2024-02-21T15:09:05;101629.06;;;25.23;45.13
32237;BME280;18726;44.732;10.550;2024-02-21T15:12:11;101629.06;;;25.23;44.73
32237;BME280;18726;44.732;10.550;2024-02-21T15:15:15;101622.59;;;25.30;45.14
32237;BME280;18726;44.732;10.550;2024-02-21T15:18:20;101621.09;;;25.25;43.95
32237;BME280;18726;44.732;10.550;2024-02-21T15:21:24;101615.00;;;25.10;44.38
32237;BME280;18726;44.732;10.550;2024-02-21T15:24:28;101610.78;;;24.75;42.54
32237;BME280;18726;44.732;10.550;2024-02-21T15:27:31;101614.66;;;24.28;42.78
32237;BME280;18726;44.732;10.550;2024-02-21T15:30:35;101601.88;;;24.34;45.99
32237;BME280;18726;44.732;10.550;2024-02-21T15:33:39;101602.16;;;24.43;45.06
32237;BME280;18726;44.732;10.550;2024-02-21T15:36:43;101593.84;;;24.39;44.77
32237;BME280;18726;44.732;10.550;2024-02-21T15:39:47;101594.59;;;24.43;45.95
32237;BME280;18726;44.732;10.550;2024-02-21T15:42:51;101596.22;;;24.41;45.63
32237;BME280;18726;44.732;10.550;2024-02-21T15:45:55;101590.03;;;24.30;46.71
32237;BME280;18726;44.732;10.550;2024-02-21T15:48:58;101593.31;;;24.21;46.26
32237;BME280;18726;44.732;10.550;2024-02-21T15:52:02;101594.19;;;24.14;47.85